• Join FlightAware (Why Join?)
  • Login
  • US Flag 
08:11AM EDT


 

Airport Tracker/Info


-or-


 

Live Flight TrackerFlight Track Log ✈ N509QS ✈ 2013年 07月 11日 ✈ KAPA - KTEB

Flight Track Log - Related Links

Times and Time Zones

All times are in EDT time to prevent confusion due to time zone crossing. See the N509QS flight status page for this flight to view local times or setup timezone preferences in your user account.

Time Position Orientation Groundspeed Altitude Reporting Facility
EDT Latitude Longitude Course Direction KTS MPH feet Rate Location/Type
08:38PM 39.5833 -104.9167 333° Northwest 261 300 10,500  Level Denver TRACON
08:39PM 39.6333 -104.8333 52° Northeast 307 353 11,800 1,620 Climbing Denver TRACON
08:40PM 39.6833 -104.7167 61° Northeast 371 427 13,800 2,040 Climbing Denver TRACON
08:41PM 39.7500 -104.6167 49° Northeast 395 455 16,100 2,340 Climbing Denver TRACON
08:42PM 39.8667 -104.5667 18° North 408 470 18,500 2,520 Climbing Denver TRACON
08:43PM 40.1140 -104.1372 48° Northeast  Level FlightAware Approximate
08:43PM 39.9833 -104.5000 24° Northeast 421 484 21,400  Level Denver TRACON
08:45PM 40.1381 -104.4369 17° North 454 522 23,400 1,560 Climbing Denver Center
08:46PM 40.2681 -104.3761 20° North 471 542 25,100 1,860 Climbing Denver Center
08:47PM 40.3969 -104.3164 19° North 485 558 27,300 1,980 Climbing Denver Center
08:48PM 40.5244 -104.2608 18° North 483 556 29,200 1,920 Climbing Denver Center
08:49PM 40.6586 -104.1292 37° Northeast 492 566 31,700 2,160 Climbing Denver Center
08:50PM 40.7783 -103.9825 43° Northeast 481 554 34,100 2,100 Climbing Denver Center
08:51PM 40.8758 -103.8539 45° Northeast 491 565 36,100 1,920 Climbing Denver Center
08:52PM 40.9719 -103.7300 44° Northeast 485 558 38,100 1,980 Climbing Denver Center
08:53PM 41.0731 -103.5992 44° Northeast 477 549 40,300 1,380 Climbing Denver Center
08:54PM 41.1614 -103.4828 45° Northeast 471 542 41,000 360 Climbing Denver Center
08:55PM 41.2703 -103.3394 45° Northeast 490 564 41,100 120 Climbing Denver Center
08:56PM 41.3661 -103.2119 45° Northeast 506 582 41,300 660 Climbing Denver Center
08:57PM 41.4267 -103.0222 67° East 509 586 42,500 960 Climbing Denver Center
08:58PM 41.4594 -102.8481 76° East 509 586 43,400 900 Climbing Denver Center
08:59PM 41.4903 -102.6756 77° East 502 578 44,400 780 Climbing Denver Center
09:00PM 41.5289 -102.4806 75° East 491 565 45,000 240 Climbing Denver Center
09:01PM 41.5583 -102.3114 77° East 489 563 45,000  Level Denver Center
09:02PM 41.6069 -102.1178 71° East 490 564 45,000  Level Denver Center
09:04PM 41.6514 -101.9528 70° East 492 566 45,000  Level Denver Center
09:05PM 41.7036 -101.7600 70° East 493 567 45,000  Level Denver Center
09:06PM 41.7639 -101.6067 62° Northeast 484 557 45,000  Level Denver Center
09:07PM 41.8450 -101.4353 58° Northeast 487 560 45,000  Level Denver Center
09:08PM 41.9142 -101.2889 58° Northeast 484 557 45,000  Level Denver Center
09:09PM 41.9825 -101.1400 58° Northeast 487 560 45,000  Level Denver Center
09:10PM 42.0514 -100.9606 63° Northeast 489 563 45,000  Level Denver Center
09:11PM 42.0781 -100.7875 78° East 491 565 45,000  Level Denver Center
09:12PM 42.1072 -100.5858 79° East 491 565 45,000  Level Denver Center
09:13PM 42.1325 -100.4111 79° East 495 570 45,000  Level Denver Center
09:14PM 42.1614 -100.2092 79° East 493 567 45,000  Level Denver Center
09:15PM 42.1861 -100.0347 79° East 493 567 45,000  Level Denver Center
09:16PM 42.2144 -99.8303 79° East 496 571 45,000  Level Denver Center
09:17PM 42.2364 -99.6747 79° East 496 571 45,000  Level Denver Center
09:18PM 42.2667 -99.4558 79° East 493 567 45,000  Level Denver Center
09:19PM 42.2961 -99.2383 80° East 492 566 45,000  Level Minneapolis Center
09:20PM 42.3200 -99.0564 80° East 492 566 45,000  Level Minneapolis Center
09:21PM 42.3444 -98.8736 80° East 487 560 45,000  Level Denver Center
09:22PM 42.3689 -98.6914 80° East 489 563 45,000  Level Denver Center
09:23PM 42.3964 -98.4739 80° East 491 565 45,000  Level Minneapolis Center
09:24PM 42.4200 -98.2903 80° East 493 567 45,000  Level Minneapolis Center
09:26PM 42.4428 -98.1050 80° East 496 571 45,000  Level Minneapolis Center
09:27PM 42.4661 -97.9186 80° East 500 575 45,000  Level Minneapolis Center
09:28PM 42.4889 -97.7275 81° East 497 572 45,000  Level Minneapolis Center
09:29PM 42.5100 -97.5444 81° East 492 566 45,000  Level Minneapolis Center
09:30PM 42.5364 -97.3217 81° East 497 572 45,000  Level Minneapolis Center
09:31PM 42.5581 -97.1353 81° East 499 574 45,000  Level Minneapolis Center
09:32PM 42.5797 -96.9497 81° East 499 574 45,000  Level Minneapolis Center
09:33PM 42.6006 -96.7633 81° East 500 575 45,000  Level Minneapolis Center
09:34PM 42.6206 -96.5764 82° East 499 574 45,000  Level Minneapolis Center
09:35PM 42.6414 -96.3892 81° East 499 574 45,000  Level Minneapolis Center
09:36PM 42.6617 -96.2031 82° East 497 572 45,000  Level Minneapolis Center
09:37PM 42.6850 -95.9806 82° East 496 571 45,000  Level Minneapolis Center
09:38PM 42.7042 -95.7953 82° East 495 570 45,000  Level Minneapolis Center
09:39PM 42.7231 -95.6125 82° East 491 565 45,000  Level Minneapolis Center
09:40PM 42.7417 -95.4181 83° East 485 558 45,000  Level Minneapolis Center
09:41PM 42.7597 -95.2350 82° East 489 563 45,000  Level Minneapolis Center
09:42PM 42.7786 -95.0531 82° East 490 564 45,000  Level Minneapolis Center
09:43PM 42.7950 -94.8697 83° East 491 565 45,000  Level Minneapolis Center
09:44PM 42.8125 -94.6886 82° East 487 560 45,000  Level Minneapolis Center
09:45PM 42.8319 -94.4806 83° East 493 567 45,000  Level Minneapolis Center
09:46PM 42.8469 -94.2986 84° East 489 563 45,000  Level Minneapolis Center
09:47PM 42.8625 -94.1156 83° East 490 564 45,000  Level Minneapolis Center
09:48PM 42.8789 -93.9325 83° East 492 566 45,000  Level Minneapolis Center
09:49PM 42.8939 -93.7511 83° East 487 560 45,000  Level Minneapolis Center
09:50PM 42.9133 -93.5322 83° East 490 564 45,000  Level Minneapolis Center
09:51PM 42.9286 -93.3489 83° East 490 564 45,000  Level Minneapolis Center
09:52PM 42.9425 -93.1664 84° East 488 562 45,000  Level Minneapolis Center
09:54PM 42.9572 -92.9844 84° East 486 559 45,000  Level Minneapolis Center
09:55PM 42.9750 -92.7658 84° East 487 560 45,000  Level Minneapolis Center
09:56PM 42.9878 -92.5803 85° East 493 567 45,000  Level Minneapolis Center
09:57PM 43.0053 -92.3569 84° East 498 573 45,000  Level Minneapolis Center
09:58PM 43.0183 -92.1697 84° East 498 573 45,000  Level Minneapolis Center
09:59PM 43.0317 -91.9817 84° East 499 574 45,000  Level Minneapolis Center
10:00PM 43.0461 -91.7917 84° East 501 577 45,000  Level Minneapolis Center
10:01PM 43.0589 -91.6019 85° East 500 575 45,000  Level Minneapolis Center
10:02PM 43.0708 -91.4136 85° East 495 570 45,000  Level Minneapolis Center
10:03PM 43.0808 -91.2297 86° East 489 563 45,000  Level Minneapolis Center
10:04PM 43.0942 -91.0081 85° East 488 562 45,000  Level Minneapolis Center
10:05PM 43.1047 -90.8228 85° East 490 564 45,000  Level Minneapolis Center
10:06PM 43.1156 -90.6375 85° East 491 565 45,000  Level Minneapolis Center
10:07PM 43.1261 -90.4522 85° East 493 567 45,000  Level Minneapolis Center
10:08PM 43.1350 -90.2697 86° East 488 562 45,000  Level Minneapolis Center
10:09PM 43.1483 -90.0278 86° East 489 563 45,000  Level Minneapolis Center
10:10PM 43.1581 -89.8383 86° East 497 572 45,000  Level Minneapolis Center
10:11PM 43.1667 -89.6497 86° East 497 572 45,000  Level Minneapolis Center
10:12PM 43.1758 -89.4628 86° East 493 567 45,000  Level Minneapolis Center
10:13PM 43.1856 -89.2453 86° East 490 564 45,000  Level Minneapolis Center
10:15PM 43.1944 -89.0583 86° East 491 565 45,000  Level Minneapolis Center
10:16PM 43.2031 -88.8422 87° East 489 563 45,000  Level Minneapolis Center
10:17PM 43.2097 -88.6522 87° East 499 574 45,000  Level Minneapolis Center
10:18PM 43.2178 -88.4331 87° East 500 575 45,000  Level Minneapolis Center
10:19PM 43.2247 -88.2433 87° East 504 580 45,000  Level Chicago Center
10:20PM 43.2319 -88.0528 87° East 503 579 45,000  Level Chicago Center
10:21PM 43.2383 -87.8600 87° East 507 583 45,000  Level Chicago Center
10:22PM 43.2444 -87.6658 87° East 510 587 45,000  Level Chicago Center
10:23PM 43.2503 -87.4733 88° East 507 583 45,000  Level Chicago Center
10:24PM 43.2575 -87.2811 87° East 500 575 45,000  Level Chicago Center
10:25PM 43.2625 -87.0903 88° East 502 578 45,000  Level Chicago Center
10:26PM 43.2664 -86.9006 88° East 499 574 45,000  Level Chicago Center
10:27PM 43.2728 -86.6694 88° East 505 581 45,000  Level Chicago Center
10:28PM 43.2769 -86.4758 88° East 507 583 45,000  Level Chicago Center
10:29PM 43.2811 -86.2836 88° East 502 578 45,000  Level Chicago Center
10:30PM 43.2850 -86.0894 88° East 503 579 45,000  Level Chicago Center
10:31PM 43.2875 -85.8931 89° East 506 582 45,000  Level Chicago Center
10:32PM 43.2906 -85.6989 89° East 504 580 45,000  Level Chicago Center
10:33PM 43.2925 -85.5064 89° East 503 579 45,000  Level Chicago Center
10:34PM 43.2947 -85.3142 89° East 502 578 45,000  Level Chicago Center
10:35PM 43.2958 -85.1214 89° East 504 580 45,000  Level Chicago Center
10:36PM 43.2975 -84.9317 89° East 500 575 45,000  Level Chicago Center
10:37PM 43.2986 -84.7411 89° East 499 574 45,000  Level Chicago Center
10:38PM 43.2997 -84.5542 89° East 496 571 45,000  Level Chicago Center
10:39PM 43.3008 -84.3642 89° East 499 574 45,000  Level Chicago Center
10:40PM 43.3011 -84.1303 90° East 502 578 45,000  Level Chicago Center
10:41PM 43.3011 -83.9422 90° East 497 572 45,000  Level Chicago Center
10:42PM 43.2833 -83.8000 100° East 490 564 45,000  Level Toronto Center
10:43PM 43.2978 -83.6897 80° East 495 570 45,000  Level Cleveland Center
10:44PM 43.2967 -83.5014 90° East 500 575 45,000  Level Cleveland Center
10:45PM 43.2950 -83.3072 91° East 500 575 45,000  Level Cleveland Center
10:46PM 43.2953 -83.1133 90° East 500 575 45,000  Level Cleveland Center
10:47PM 43.2950 -82.9222 90° East 500 575 45,000  Level Cleveland Center
10:48PM 43.2906 -82.7281 92° East 500 575 45,000  Level Cleveland Center
10:48PM 43.2897 -82.5339 90° East 500 575 45,000  Level Cleveland Center
10:50PM 43.2867 -82.3400 91° East 500 575 45,000  Level Cleveland Center
10:51PM 43.2831 -82.1517 91° East 500 575 45,000  Level Cleveland Center
10:52PM 43.2667 -81.8833 95° East 500 575 45,000  Level Toronto Center
10:53PM 43.2667 -81.7000 90° East 500 575 45,000  Level Toronto Center
10:54PM 43.2500 -81.4833 96° East 510 587 45,000  Level Toronto Center
10:55PM 43.2500 -81.3000 90° East 510 587 45,000  Level Toronto Center
10:56PM 43.2500 -81.1000 90° East 510 587 45,000  Level Toronto Center
10:57PM 43.2333 -80.9167 97° East 510 587 45,000  Level Toronto Center
10:58PM 43.2500 -80.7333 83° East 500 575 45,000  Level Toronto Center
10:59PM 43.2333 -80.5333 96° East 500 575 45,000  Level Toronto Center
11:00PM 43.2333 -80.3500 90° East 510 587 45,000 -300 Level Toronto Center
11:01PM 43.2167 -80.1333 96° East 500 575 44,500 -780 Descending Toronto Center
11:02PM 43.2167 -79.9500 90° East 500 575 43,500 -1,020 Descending Toronto Center
11:03PM 43.2000 -79.7667 97° East 500 575 42,500 -1,020 Descending Toronto Center
11:04PM 43.2000 -79.5667 90° East 500 575 41,500 -1,020 Descending Toronto Center
11:05PM 43.2000 -79.3833 90° East 510 587 40,500 -1,080 Descending Toronto Center
11:06PM 43.1833 -79.1833 96° East 500 575 39,400 -1,200 Descending Toronto Center
11:07PM 43.1833 -79.0000 90° East 500 575 38,200 -1,200 Descending Toronto Center
11:08PM 43.1667 -78.7833 96° East 520 598 37,000 -1,200 Descending Toronto Center
11:09PM 43.1667 -78.5833 90° East 530 610 35,800 -1,200 Descending Toronto Center
11:10PM 43.1333 -78.4000 104° East 540 621 34,600 -1,200 Descending Toronto Center
11:11PM 43.1333 -78.1667 90° East 540 621 33,400 -1,200 Descending Toronto Center
11:12PM 43.1167 -77.9833 97° East 540 621 32,200 -1,260 Descending Toronto Center
11:13PM 43.0667 -77.7833 109° East 520 598 30,900 -1,260 Descending Toronto Center
11:14PM 43.0167 -77.6333 114° Southeast 520 598 29,700 -1,260 Descending Toronto Center
11:15PM 42.9500 -77.4500 116° Southeast 510 587 28,400 -1,200 Descending Toronto Center
11:16PM 42.8667 -77.2667 122° Southeast 510 587 27,300 -600 Descending Toronto Center
11:17PM 42.8139 -77.0883 112° Southeast 513 590 27,000 -180 Descending Boston Center
11:18PM 42.7422 -76.9019 118° Southeast 513 590 27,000  Level Boston Center
11:19PM 42.6778 -76.7306 117° Southeast 508 585 27,000  Level Boston Center
11:20PM 42.6153 -76.5625 117° Southeast 508 585 27,000  Level Boston Center
11:21PM 42.5525 -76.3978 117° Southeast 502 578 27,000  Level Boston Center
11:22PM 42.4850 -76.2328 119° Southeast 502 578 27,000  Level Boston Center
11:23PM 42.4131 -76.0794 122° Southeast 495 570 27,000 -720 Level Boston Center
11:24PM 42.3408 -75.9178 121° Southeast 495 570 25,600 -1,380 Descending Boston Center
11:25PM 42.2783 -75.7767 121° Southeast 489 563 24,300 660 Descending Boston Center
11:26PM 42.1992 -75.6325 127° Southeast 484 557 27,000 -1,560 Climbing Boston Center
11:27PM 42.1408 -75.4781 117° Southeast 479 551 21,200 -3,660 Descending Boston Center
11:28PM 42.0758 -75.3381 122° Southeast 466 536 19,700 -1,500 Descending Boston Center
11:29PM 42.0208 -75.1956 117° Southeast 442 509 18,200 -1,380 Descending Boston Center
11:30PM 41.9600 -75.0422 118° Southeast 421 484 17,000 -600 Descending Boston Center
11:31PM 41.9128 -74.9147 116° Southeast 414 476 17,000 -300 Level Boston Center
11:32PM 41.8469 -74.7700 121° Southeast 419 482 16,500 -5,040 Descending Boston Center
11:33PM 41.7872 -74.6342 120° Southeast 419 482 7,000 -4,800 Descending Boston Center
11:34PM 41.6525 -74.7017 201° Southwest 419 482 7,000 2,340 Level Boston Center
11:35PM 41.5844 -74.6714 162° South 393 452 11,700 1,500 Climbing Boston Center
11:36PM 41.4975 -74.6297 160° South 320 368 10,000 -1,800 Descending Boston Center
11:37PM 41.4000 -74.6000 167° South 282 325 7,800 -1,800 Descending New York TRACON
11:38PM 41.3333 -74.6167 191° South 271 312 6,100 -900 Descending New York TRACON
11:39PM 41.2500 -74.6000 171° South 282 325 6,000 -720 Descending New York TRACON
11:40PM 41.1833 -74.5500 151° Southeast 280 322 4,700 -1,440 Descending New York TRACON
11:41PM 41.1333 -74.4833 135° Southeast 273 314 3,200 -840 Descending New York TRACON
11:43PM 41.0667 -74.4333 151° Southeast 270 311 3,000 -120 Descending New York TRACON
11:43PM 41.0000 -74.3667 143° Southeast 272 313 3,000  Level New York TRACON
11:45PM 40.9333 -74.3167 150° Southeast 253 291 3,000 -420 Level New York TRACON
11:45PM 40.8833 -74.2667 143° Southeast 243 280 2,200 -840 Descending New York TRACON
11:46PM 40.8333 -74.2167 143° Southeast 197 227 1,500 -420 Descending New York TRACON
11:47PM 40.8167 -74.1833 123° Southeast 164 189 1,400 -120 Descending New York TRACON